Time;durP1;ratioP1;P1;durP2;ratioP2;P2;SDS_P1;SDS_P2;PMS_P1;PMS_P2;Temp;Humidity;BMP_temperature;BMP_pressure;BME280_temperature;BME280_humidity;BME280_pressure;Samples;Min_cycle;Max_cycle;Signal;HPM_P1;HPM_P2
2022/11/05 00:10:37;;;;;;;;;;;6.50;99.90;;;;;;5034907;28;20041;-66
2022/11/05 00:18:34;;;;;;;13.77;2.47;;;6.50;99.90;;;;;;5034628;28;20047;-66
2022/11/05 00:21:01;;;;;;;8.57;3.30;;;6.50;99.90;;;;;;5053088;28;20040;-69
2022/11/05 00:26:12;;;;;;;7.40;3.45;;;6.50;99.90;;;;;;5034830;28;20056;-66
2022/11/05 00:28:42;;;;;;;10.80;3.42;;;6.50;99.90;;;;;;5053248;28;20097;-66
2022/11/05 00:31:11;;;;;;;12.60;3.08;;;6.50;99.90;;;;;;5034560;28;20036;-66
2022/11/05 00:33:38;;;;;;;9.23;3.88;;;6.50;99.90;;;;;;5053019;28;20064;-66
2022/11/05 00:36:06;;;;;;;9.75;3.25;;;6.50;99.90;;;;;;5035021;28;20543;-66
2022/11/05 00:38:32;;;;;;;9.93;3.25;;;6.40;99.90;;;;;;5034242;28;20045;-66
2022/11/05 00:40:58;;;;;;;7.07;3.33;;;6.40;99.90;;;;;;5035242;28;20045;-66
2022/11/05 00:46:08;;;;;;;8.70;2.70;;;6.50;99.90;;;;;;5034081;28;20056;-67
2022/11/05 00:51:19;;;;;;;7.97;2.92;;;6.40;99.90;;;;;;5052725;28;20052;-66
2022/11/05 00:53:44;;;;;;;6.82;2.40;;;6.40;99.90;;;;;;5017078;28;20037;-66
2022/11/05 00:56:10;;;;;;;6.97;2.20;;;6.50;99.90;;;;;;5052767;28;20361;-67
2022/11/05 00:58:36;;;;;;;8.80;1.90;;;6.50;99.90;;;;;;5034543;28;20041;-67
2022/11/05 01:01:02;;;;;;;6.13;2.60;;;6.50;99.90;;;;;;5051568;28;20111;-67
2022/11/05 01:03:34;;;;;;;8.55;2.97;;;6.50;99.90;;;;;;5035145;28;20049;-66
2022/11/05 01:06:11;;;;;;;10.38;3.22;;;6.50;99.90;;;;;;5052286;28;20041;-67
2022/11/05 01:08:38;;;;;;;5.75;2.17;;;6.50;99.90;;;;;;5033692;28;20107;-67
2022/11/05 01:11:12;;;;;;;8.32;2.50;;;6.40;99.90;;;;;;5052359;28;20041;-67
2022/11/05 01:13:39;;;;;;;11.43;3.65;;;6.40;99.90;;;;;;5033943;28;20145;-66
2022/11/05 01:16:09;;;;;;;6.03;2.35;;;6.40;99.90;;;;;;5034381;28;20120;-66
2022/11/05 01:18:37;;;;;;;7.22;2.72;;;6.30;99.90;;;;;;5052346;28;20394;-67
2022/11/05 01:21:11;;;;;;;7.95;2.67;;;6.30;99.90;;;;;;5033307;28;20080;-67
2022/11/05 01:23:37;;;;;;;9.82;3.35;;;6.30;99.90;;;;;;5034002;28;20045;-66
2022/11/05 01:26:02;;;;;;;5.88;2.45;;;6.30;99.90;;;;;;5034029;28;20052;-66
2022/11/05 01:28:28;;;;;;;10.13;3.08;;;6.30;99.90;;;;;;5051343;28;20063;-67
2022/11/05 01:30:55;;;;;;;6.95;2.28;;;6.30;99.90;;;;;;5033558;28;20128;-67
2022/11/05 01:33:20;;;;;;;6.82;2.67;;;6.30;99.90;;;;;;5052299;28;20036;-66
2022/11/05 01:35:49;;;;;;;7.70;2.92;;;6.30;99.90;;;;;;5016356;28;20033;-67
2022/11/05 01:38:14;;;;;;;8.98;2.65;;;6.30;99.90;;;;;;5017708;28;20068;-67
2022/11/05 01:40:42;;;;;;;6.78;2.88;;;6.30;99.90;;;;;;5033793;28;20079;-67
2022/11/05 01:43:15;;;;;;;7.68;2.67;;;6.30;99.90;;;;;;5016719;28;20041;-66
2022/11/05 01:45:43;;;;;;;8.90;2.33;;;6.30;99.90;;;;;;5034098;28;20056;-66
2022/11/05 01:48:14;;;;;;;10.43;2.92;;;6.30;99.90;;;;;;5033714;28;20565;-67
2022/11/05 01:50:55;;;;;;;6.78;2.25;;;6.30;99.90;;;;;;5032820;28;20575;-67
2022/11/05 01:53:29;;;;;;;7.18;2.60;;;6.30;99.90;;;;;;5034084;28;20036;-66
2022/11/05 01:56:03;;;;;;;8.70;2.43;;;6.30;99.90;;;;;;5032731;28;20116;-66
2022/11/05 01:59:02;;;;;;;9.33;3.53;;;6.30;99.90;;;;;;5034100;28;20280;-66
2022/11/05 02:01:28;;;;;;;7.25;2.00;;;6.30;99.90;;;;;;5028815;28;20409;-66
2022/11/05 02:03:58;;;;;;;10.10;3.00;;;6.30;99.90;;;;;;5032410;28;20037;-66
2022/11/05 02:06:27;;;;;;;10.15;2.42;;;6.20;99.90;;;;;;5017526;28;20405;-66
2022/11/05 02:09:00;;;;;;;6.95;2.35;;;6.20;99.90;;;;;;5033688;28;20362;-66
2022/11/05 02:11:27;;;;;;;6.95;2.40;;;6.10;99.90;;;;;;5016542;28;20076;-66
2022/11/05 02:13:53;;;;;;;8.27;2.33;;;6.20;99.90;;;;;;5033479;28;20128;-66
2022/11/05 02:16:37;;;;;;;7.00;2.00;;;6.20;99.90;;;;;;5051550;28;20125;-66
2022/11/05 02:19:28;;;;;;;7.05;2.22;;;6.20;99.90;;;;;;5017335;28;20037;-66
2022/11/05 02:22:33;;;;;;;7.03;2.03;;;6.20;99.90;;;;;;5033116;28;20128;-66
2022/11/05 02:25:36;;;;;;;10.10;2.17;;;6.30;99.90;;;;;;5032549;28;20053;-66
2022/11/05 02:28:11;;;;;;;7.25;2.03;;;6.30;99.90;;;;;;5051465;28;20128;-66
2022/11/05 02:30:59;;;;;;;11.52;2.40;;;6.30;99.90;;;;;;5033381;28;20044;-66
2022/11/05 02:33:34;;;;;;;9.02;2.88;;;6.30;99.90;;;;;;5033508;28;20053;-66
2022/11/05 02:36:05;;;;;;;8.95;2.42;;;6.40;99.90;;;;;;5033354;28;20125;-66
2022/11/05 02:38:46;;;;;;;6.75;2.03;;;6.50;99.90;;;;;;5053294;28;20049;-67
2022/11/05 02:41:22;;;;;;;6.22;1.88;;;6.50;99.90;;;;;;5055297;28;20490;-66
2022/11/05 02:43:51;;;;;;;10.60;2.95;;;6.60;99.90;;;;;;5020522;28;20048;-66
2022/11/05 02:46:40;;;;;;;8.40;2.10;;;6.70;99.90;;;;;;5054286;28;20566;-66
2022/11/05 02:49:24;;;;;;;8.23;1.98;;;6.70;99.90;;;;;;5054953;28;20041;-66
2022/11/05 02:51:58;;;;;;;6.10;1.88;;;6.80;99.90;;;;;;5053684;28;20044;-66
2022/11/05 02:54:43;;;;;;;7.97;1.75;;;6.90;99.90;;;;;;5020883;28;20091;-66
2022/11/05 02:57:08;;;;;;;6.45;1.58;;;6.90;99.90;;;;;;5036861;28;20120;-66
2022/11/05 02:59:34;;;;;;;6.38;2.05;;;7.00;99.90;;;;;;5053971;28;20120;-66
2022/11/05 03:02:01;;;;;;;5.38;1.95;;;7.10;99.90;;;;;;5054695;28;20033;-66
2022/11/05 03:04:28;;;;;;;6.72;1.90;;;7.10;99.90;;;;;;5037140;28;20053;-66
2022/11/05 03:07:12;;;;;;;4.53;1.92;;;7.20;99.90;;;;;;5053715;28;20071;-66
2022/11/05 03:10:10;;;;;;;4.53;1.48;;;7.20;99.90;;;;;;5036560;28;20048;-66
2022/11/05 03:13:00;;;;;;;6.57;1.55;;;7.30;99.90;;;;;;5036780;28;20052;-66
2022/11/05 03:16:09;;;;;;;6.93;1.38;;;7.30;99.90;;;;;;5037335;28;20106;-66
2022/11/05 03:19:05;;;;;;;5.28;1.83;;;7.30;99.90;;;;;;4957191;28;20054;-66
2022/11/05 03:21:33;;;;;;;;;;;7.40;99.90;;;;;;4941894;28;20153;-66
2022/11/05 03:24:07;;;;;;;8.85;2.50;;;7.40;99.90;;;;;;5011110;28;19943;-67
2022/11/05 03:26:36;;;;;;;6.60;1.60;;;7.40;99.90;;;;;;5016589;28;20124;-66
2022/11/05 03:29:08;;;;;;;4.72;1.55;;;7.40;99.90;;;;;;4999215;28;20384;-66
2022/11/05 03:31:35;;;;;;;6.10;1.75;;;7.50;99.90;;;;;;5033891;28;20050;-66
2022/11/05 03:34:04;;;;;;;4.82;1.40;;;7.50;99.90;;;;;;5015542;28;20041;-66
2022/11/05 03:36:33;;;;;;;6.30;1.20;;;7.50;99.90;;;;;;5016927;28;20389;-66
2022/11/05 03:39:04;;;;;;;4.50;1.27;;;7.50;99.90;;;;;;5016390;28;20033;-66
2022/11/05 03:41:32;;;;;;;3.83;1.17;;;7.60;99.90;;;;;;5015808;28;20119;-66
2022/11/05 03:44:02;;;;;;;5.93;1.98;;;7.70;99.90;;;;;;5033970;28;20041;-66
2022/11/05 03:46:48;;;;;;;3.65;1.33;;;7.60;99.90;;;;;;5016494;28;20057;-66
2022/11/05 03:49:22;;;;;;;5.65;1.42;;;7.70;99.90;;;;;;5014622;28;20054;-66
2022/11/05 03:52:13;;;;;;;6.22;2.10;;;7.80;99.90;;;;;;5033494;28;20517;-66
2022/11/05 03:54:39;;;;;;;6.47;1.90;;;7.80;99.90;;;;;;5033709;28;20065;-66
2022/11/05 03:57:05;;;;;;;3.80;1.55;;;7.80;99.90;;;;;;5033103;28;20037;-66
2022/11/05 03:59:32;;;;;;;5.82;1.02;;;7.80;99.90;;;;;;5016199;28;20482;-66
2022/11/05 04:01:57;;;;;;;4.88;1.30;;;7.80;99.90;;;;;;5015926;28;20513;-66
2022/11/05 04:04:24;;;;;;;4.35;1.48;;;7.90;99.90;;;;;;5015374;28;20042;-66
2022/11/05 04:15:02;;;;;;;3.05;1.13;;;7.80;99.90;;;;;;5015420;28;20043;-66
2022/11/05 04:17:27;;;;;;;9.85;1.38;;;7.80;99.90;;;;;;5015149;28;20120;-66
2022/11/05 04:25:22;;;;;;;5.03;1.92;;;7.70;99.90;;;;;;5029538;28;20083;-66
2022/11/05 04:27:48;;;;;;;4.68;1.63;;;7.70;99.90;;;;;;5052743;28;20044;-66
2022/11/05 04:30:18;;;;;;;4.05;1.10;;;7.70;99.90;;;;;;5053220;28;20052;-66
2022/11/05 04:32:58;;;;;;;5.68;1.42;;;7.60;99.90;;;;;;5035073;28;20144;-66
2022/11/05 04:35:24;;;;;;;6.57;1.80;;;7.60;99.90;;;;;;5018869;28;20486;-66
2022/11/05 04:37:50;;;;;;;6.63;1.77;;;7.50;99.90;;;;;;5034017;28;20048;-66
2022/11/05 04:40:15;;;;;;;4.05;1.70;;;7.50;99.90;;;;;;5035439;28;20033;-66
2022/11/05 04:42:41;;;;;;;7.40;1.50;;;7.50;99.90;;;;;;5034901;28;20501;-66
2022/11/05 04:45:07;;;;;;;4.32;1.58;;;7.50;99.90;;;;;;5034199;28;20405;-66
2022/11/05 04:47:32;;;;;;;5.20;1.90;;;7.50;99.90;;;;;;5035024;28;20056;-66
2022/11/05 04:49:58;;;;;;;4.55;2.05;;;7.50;99.90;;;;;;5034828;28;20045;-66
2022/11/05 04:52:24;;;;;;;5.05;1.63;;;7.50;99.90;;;;;;5034209;28;20078;-66
2022/11/05 04:54:50;;;;;;;4.43;1.48;;;7.40;99.90;;;;;;5052300;28;20040;-66
2022/11/05 04:57:15;;;;;;;5.55;2.03;;;7.40;99.90;;;;;;5035214;28;20045;-66
2022/11/05 04:59:41;;;;;;;6.15;1.85;;;7.30;99.90;;;;;;5051363;28;20033;-66
2022/11/05 05:02:06;;;;;;;5.18;2.45;;;7.30;99.90;;;;;;5052013;28;20051;-66
2022/11/05 05:04:32;;;;;;;6.22;2.55;;;7.30;99.90;;;;;;5052812;28;20043;-66
2022/11/05 05:06:58;;;;;;;5.82;2.45;;;7.30;99.90;;;;;;5051650;28;20125;-66
2022/11/05 05:09:23;;;;;;;5.97;3.08;;;7.30;99.90;;;;;;5034572;28;20171;-66
2022/11/05 05:11:49;;;;;;;5.72;3.08;;;7.30;99.90;;;;;;5034102;28;20037;-66
2022/11/05 05:14:15;;;;;;;7.88;3.20;;;7.40;99.90;;;;;;5051836;28;20036;-66
2022/11/05 05:16:40;;;;;;;6.78;2.40;;;7.40;99.90;;;;;;5034334;28;20140;-66
2022/11/05 05:19:06;;;;;;;6.30;2.97;;;7.40;99.90;;;;;;5034490;28;20037;-66
2022/11/05 05:21:37;;;;;;;6.13;2.25;;;7.40;99.90;;;;;;5051559;28;20083;-66
2022/11/05 05:24:14;;;;;;;5.28;2.22;;;7.50;99.90;;;;;;5051842;28;20472;-66
2022/11/05 05:26:46;;;;;;;6.15;2.58;;;7.50;99.90;;;;;;5033722;28;20381;-66
2022/11/05 05:29:12;;;;;;;5.07;2.35;;;7.50;99.90;;;;;;5052242;28;20103;-66
2022/11/05 05:31:39;;;;;;;6.20;2.28;;;7.60;99.90;;;;;;5052005;28;20053;-66
2022/11/05 05:34:06;;;;;;;4.90;2.45;;;7.70;99.90;;;;;;5033049;28;20460;-66
2022/11/05 05:36:32;;;;;;;6.45;2.63;;;7.70;99.90;;;;;;5034453;28;20040;-65
2022/11/05 05:38:57;;;;;;;6.93;2.08;;;7.70;99.90;;;;;;5017576;28;20379;-65
2022/11/05 05:41:24;;;;;;;12.57;2.80;;;7.70;99.90;;;;;;5051361;28;20041;-65
2022/11/05 05:43:49;;;;;;;5.47;1.80;;;7.70;99.90;;;;;;5033707;28;20091;-65
2022/11/05 05:46:17;;;;;;;6.97;2.25;;;7.70;99.90;;;;;;5034165;28;20440;-65
2022/11/05 05:48:46;;;;;;;5.25;1.88;;;7.70;99.90;;;;;;5032954;28;20498;-66
2022/11/05 05:51:12;;;;;;;5.25;2.17;;;7.70;99.90;;;;;;5033885;28;20116;-66
2022/11/05 05:53:38;;;;;;;5.60;2.20;;;7.70;99.90;;;;;;5051869;28;20117;-66
2022/11/05 05:56:04;;;;;;;4.85;2.13;;;7.70;99.90;;;;;;5032989;28;20114;-66
2022/11/05 05:58:33;;;;;;;11.18;2.78;;;7.70;99.90;;;;;;5034052;28;20069;-66
2022/11/05 06:01:01;;;;;;;4.50;1.65;;;7.70;99.90;;;;;;5017101;28;20044;-66
2022/11/05 06:03:27;;;;;;;4.63;1.63;;;7.70;99.90;;;;;;5033146;28;20497;-66
2022/11/05 06:05:52;;;;;;;6.00;1.98;;;7.70;99.90;;;;;;5033624;28;20183;-66
2022/11/05 06:08:18;;;;;;;7.15;2.45;;;7.60;99.90;;;;;;5051927;28;20082;-65
2022/11/05 06:10:50;;;;;;;6.10;2.35;;;7.60;99.90;;;;;;5032904;28;20075;-66
2022/11/05 06:13:16;;;;;;;6.32;2.33;;;7.60;99.90;;;;;;5054072;28;20029;-65
2022/11/05 06:15:41;;;;;;;7.93;2.40;;;7.60;99.90;;;;;;5037801;28;20501;-65
2022/11/05 06:18:07;;;;;;;6.95;2.55;;;7.50;99.90;;;;;;5054726;28;20032;-66
2022/11/05 06:20:32;;;;;;;6.90;2.42;;;7.50;99.90;;;;;;5037726;28;20477;-65
2022/11/05 06:22:58;;;;;;;7.55;1.95;;;7.40;99.90;;;;;;5037045;28;20398;-65
2022/11/05 06:25:24;;;;;;;4.50;1.77;;;7.40;99.90;;;;;;5037589;28;20478;-66
2022/11/05 06:27:51;;;;;;;6.93;2.17;;;7.40;99.90;;;;;;5037214;28;20041;-65
2022/11/05 06:30:17;;;;;;;4.90;1.90;;;7.30;99.90;;;;;;5054672;28;20544;-65
2022/11/05 06:32:43;;;;;;;4.68;2.05;;;7.30;99.90;;;;;;5037275;28;20077;-66
2022/11/05 06:35:09;;;;;;;5.75;2.42;;;7.30;99.90;;;;;;5037223;28;20043;-66
2022/11/05 06:37:35;;;;;;;8.32;3.05;;;7.30;99.90;;;;;;5036475;28;20036;-66
2022/11/05 06:40:00;;;;;;;7.50;2.40;;;7.30;99.90;;;;;;5054976;28;20393;-66
2022/11/05 06:42:26;;;;;;;6.82;2.97;;;7.30;99.90;;;;;;5037553;28;20130;-66
2022/11/05 06:44:52;;;;;;;5.68;2.80;;;7.30;99.90;;;;;;5036545;28;20840;-65
2022/11/05 06:47:18;;;;;;;8.75;2.80;;;7.30;99.90;;;;;;5055256;28;20544;-66
2022/11/05 06:49:47;;;;;;;7.38;3.53;;;7.30;99.90;;;;;;5037323;28;20390;-66
2022/11/05 06:52:14;;;;;;;9.02;2.95;;;7.40;99.90;;;;;;5020148;28;20052;-66
2022/11/05 06:54:41;;;;;;;9.82;3.47;;;7.40;99.90;;;;;;5020370;28;20091;-66
2022/11/05 06:57:10;;;;;;;5.70;2.53;;;7.40;99.90;;;;;;5020545;28;20068;-66
2022/11/05 06:59:37;;;;;;;10.00;3.78;;;7.40;99.90;;;;;;5053969;28;20029;-66
2022/11/05 07:02:03;;;;;;;7.72;3.33;;;7.40;99.90;;;;;;5054775;28;20116;-65
2022/11/05 07:04:29;;;;;;;6.45;3.08;;;7.40;99.90;;;;;;5037471;28;20450;-66
2022/11/05 07:06:55;;;;;;;7.65;3.40;;;7.40;99.90;;;;;;5035738;28;20073;-66
2022/11/05 07:09:21;;;;;;;6.68;3.17;;;7.40;99.90;;;;;;5037015;28;20155;-65
2022/11/05 07:11:47;;;;;;;8.10;4.40;;;7.40;99.90;;;;;;5036505;28;20414;-66
2022/11/05 07:14:12;;;;;;;10.65;3.72;;;7.40;99.90;;;;;;5054000;28;20037;-66
2022/11/05 07:16:38;;;;;;;11.20;3.75;;;7.40;99.90;;;;;;5019940;28;20041;-66
2022/11/05 07:19:03;;;;;;;5.72;3.47;;;7.40;99.90;;;;;;5054136;28;20072;-66
2022/11/05 07:21:29;;;;;;;10.40;3.60;;;7.40;99.90;;;;;;5036641;28;20080;-65
2022/11/05 07:23:55;;;;;;;9.30;3.97;;;7.50;99.90;;;;;;5019378;28;20088;-66
2022/11/05 07:26:20;;;;;;;7.18;3.33;;;7.40;99.90;;;;;;5035885;28;20119;-65
2022/11/05 07:28:46;;;;;;;8.50;3.40;;;7.50;99.90;;;;;;5036326;28;20487;-66
2022/11/05 07:31:12;;;;;;;10.45;4.07;;;7.50;99.90;;;;;;5036452;28;20424;-66
2022/11/05 07:33:37;;;;;;;11.75;4.68;;;7.50;99.90;;;;;;5053378;28;20429;-66
2022/11/05 07:36:03;;;;;;;9.50;3.88;;;7.50;99.90;;;;;;5054396;28;20045;-66
2022/11/05 07:38:29;;;;;;;8.88;3.72;;;7.50;99.90;;;;;;5054718;28;20127;-66
2022/11/05 07:40:57;;;;;;;5.65;3.47;;;7.60;99.90;;;;;;5053139;28;20403;-66
2022/11/05 07:43:23;;;;;;;5.70;3.15;;;7.70;99.90;;;;;;5054125;28;20044;-66
2022/11/05 07:45:48;;;;;;;5.78;2.78;;;7.80;99.90;;;;;;5053664;28;20071;-66
2022/11/05 07:48:14;;;;;;;7.72;2.90;;;7.90;99.90;;;;;;5053545;28;20389;-66
2022/11/05 07:50:40;;;;;;;9.35;3.25;;;8.10;99.90;;;;;;5054056;28;20048;-66
2022/11/05 07:53:09;;;;;;;6.43;2.78;;;8.20;99.90;;;;;;5019698;28;20049;-66
2022/11/05 07:55:36;;;;;;;5.63;2.90;;;8.30;99.90;;;;;;5053211;28;20037;-66
2022/11/05 07:58:02;;;;;;;5.97;2.60;;;8.40;99.90;;;;;;5036020;28;20485;-66
2022/11/05 08:00:28;;;;;;;5.88;2.80;;;8.50;99.90;;;;;;5019562;28;20116;-66
2022/11/05 08:03:07;;;;;;;5.60;3.08;;;8.50;99.90;;;;;;5034990;28;20095;-66
2022/11/05 08:05:35;;;;;;;6.63;3.22;;;8.60;99.90;;;;;;5053586;28;20047;-66
2022/11/05 08:08:02;;;;;;;6.68;3.38;;;8.60;99.90;;;;;;5053419;28;20041;-66
2022/11/05 08:10:28;;;;;;;6.53;3.10;;;8.60;99.90;;;;;;5035348;28;20417;-66
2022/11/05 08:12:54;;;;;;;6.18;3.25;;;8.70;99.90;;;;;;5053093;28;20041;-66
2022/11/05 08:15:21;;;;;;;6.28;2.92;;;8.70;99.90;;;;;;5018173;28;20037;-66
2022/11/05 08:17:47;;;;;;;10.68;3.50;;;8.80;99.90;;;;;;5053692;28;20036;-65
2022/11/05 08:20:13;;;;;;;9.88;3.58;;;8.80;99.90;;;;;;5055770;28;20111;-66
2022/11/05 08:22:43;;;;;;;6.70;2.90;;;8.80;99.90;;;;;;5043287;28;20051;-66
2022/11/05 08:25:09;;;;;;;7.78;3.47;;;8.90;99.90;;;;;;5053142;28;20111;-65
2022/11/05 08:27:35;;;;;;;6.32;2.78;;;8.90;99.90;;;;;;5034908;28;20107;-65
2022/11/05 08:30:02;;;;;;;8.18;3.10;;;9.00;99.90;;;;;;5034164;28;20052;-65
2022/11/05 08:32:27;;;;;;;6.07;3.05;;;9.00;99.90;;;;;;5031886;28;20041;-65
2022/11/05 08:34:53;;;;;;;7.57;3.08;;;9.10;99.90;;;;;;5015626;28;20055;-66
2022/11/05 08:37:18;;;;;;;7.97;3.45;;;9.10;99.90;;;;;;5031620;28;20075;-65
2022/11/05 08:39:45;;;;;;;6.72;2.60;;;9.20;99.90;;;;;;5032360;28;20128;-66
2022/11/05 08:42:11;;;;;;;7.65;2.97;;;9.20;99.90;;;;;;5033185;28;20430;-66
2022/11/05 08:44:37;;;;;;;9.30;3.83;;;9.30;99.90;;;;;;5031583;28;20083;-66
2022/11/05 08:47:02;;;;;;;11.95;3.65;;;9.40;99.90;;;;;;5032448;28;20149;-66
2022/11/05 08:49:28;;;;;;;8.52;3.25;;;9.40;99.90;;;;;;5033069;28;20095;-66
2022/11/05 08:51:53;;;;;;;6.88;3.00;;;9.40;99.90;;;;;;5026282;28;20044;-66
2022/11/05 08:54:20;;;;;;;7.57;3.15;;;9.50;99.90;;;;;;5013076;28;20455;-66
2022/11/05 08:56:45;;;;;;;7.18;3.40;;;9.50;99.90;;;;;;4996215;28;20037;-67
2022/11/05 08:59:11;;;;;;;7.35;3.33;;;9.60;99.90;;;;;;4995609;28;20380;-66
2022/11/05 09:01:37;;;;;;;8.27;3.30;;;9.60;99.90;;;;;;5012643;28;20359;-66
2022/11/05 09:04:03;;;;;;;8.68;4.00;;;9.60;99.90;;;;;;5016159;28;20375;-66
2022/11/05 09:06:29;;;;;;;9.88;3.50;;;9.60;99.90;;;;;;5031668;28;20056;-66
2022/11/05 09:08:55;;;;;;;7.28;3.42;;;9.60;99.90;;;;;;5032163;28;20055;-66
2022/11/05 09:11:20;;;;;;;7.65;3.03;;;9.70;99.90;;;;;;5049914;28;20048;-66
2022/11/05 09:13:46;;;;;;;10.93;3.45;;;9.70;99.90;;;;;;5014276;28;20420;-66
2022/11/05 09:16:24;;;;;;;5.68;2.85;;;9.80;99.90;;;;;;5049735;28;20064;-66
2022/11/05 09:18:49;;;;;;;5.47;2.72;;;10.00;99.90;;;;;;5048679;28;20060;-66
2022/11/05 09:21:18;;;;;;;12.93;3.67;;;10.10;99.90;;;;;;5032351;28;20573;-66
2022/11/05 09:23:45;;;;;;;6.07;2.88;;;10.30;99.90;;;;;;5031243;28;20076;-67
2022/11/05 09:26:12;;;;;;;8.90;3.10;;;10.40;99.90;;;;;;5031745;28;20051;-66
2022/11/05 09:28:38;;;;;;;6.05;2.70;;;10.50;99.90;;;;;;5049901;28;20044;-67
2022/11/05 09:31:08;;;;;;;10.95;3.63;;;10.50;99.90;;;;;;5031795;28;20067;-66
2022/11/05 09:33:36;;;;;;;8.57;3.10;;;10.60;99.90;;;;;;5030971;28;20044;-66
2022/11/05 09:36:03;;;;;;;7.75;2.35;;;10.60;99.90;;;;;;5050183;28;20398;-66
2022/11/05 09:38:30;;;;;;;15.48;2.90;;;10.70;99.90;;;;;;5052518;28;20033;-64
2022/11/05 09:41:06;;;;;;;7.00;2.83;;;10.80;99.90;;;;;;5032551;28;20044;-65
2022/11/05 09:43:42;;;;;;;6.40;2.50;;;10.80;99.90;;;;;;5033829;28;20128;-65
2022/11/05 09:46:18;;;;;;;8.90;2.83;;;10.90;99.90;;;;;;5030405;28;20091;-65
2022/11/05 09:48:47;;;;;;;6.03;2.80;;;10.80;99.90;;;;;;5013684;28;20041;-65
2022/11/05 09:51:15;;;;;;;9.20;2.00;;;10.80;99.90;;;;;;5026029;28;20043;-65
2022/11/05 09:53:42;;;;;;;8.73;2.60;;;10.80;99.90;;;;;;5033854;28;20040;-64
2022/11/05 09:56:33;;;;;;;6.63;2.95;;;10.70;99.90;;;;;;5032630;28;20036;-64
2022/11/05 09:59:07;;;;;;;6.50;2.55;;;10.80;99.90;;;;;;5030031;28;20072;-64
2022/11/05 10:01:35;;;;;;;5.60;2.65;;;10.90;99.90;;;;;;5038839;28;20139;-64
2022/11/05 10:04:24;;;;;;;6.20;2.10;;;11.00;99.90;;;;;;5035432;28;20045;-65
2022/11/05 10:06:58;;;;;;;10.05;2.75;;;11.10;99.90;;;;;;5051384;28;20521;-65
2022/11/05 10:09:46;;;;;;;7.13;2.60;;;11.20;99.90;;;;;;5024894;28;20090;-65
2022/11/05 10:12:36;;;;;;;11.02;3.00;;;11.30;99.90;;;;;;5033740;28;20125;-64
2022/11/05 10:15:22;;;;;;;7.10;2.78;;;11.40;99.90;;;;;;5015980;28;20037;-64
2022/11/05 10:17:52;;;;;;;6.03;2.42;;;11.40;99.90;;;;;;5033654;28;20080;-64
2022/11/05 10:20:32;;;;;;;5.72;2.88;;;11.50;99.90;;;;;;5033416;28;20083;-65
2022/11/05 10:23:07;;;;;;;10.93;2.60;;;11.60;99.90;;;;;;5033075;28;20080;-65
2022/11/05 10:25:39;;;;;;;7.00;2.80;;;11.60;99.90;;;;;;5033995;28;20571;-65
2022/11/05 10:28:06;;;;;;;12.80;2.60;;;11.60;99.90;;;;;;5051842;28;20048;-65
2022/11/05 10:30:32;;;;;;;6.68;3.33;;;11.60;99.90;;;;;;5050993;28;20045;-66
2022/11/05 10:33:01;;;;;;;7.30;2.70;;;11.60;99.90;;;;;;5033639;28;20045;-66
2022/11/05 10:35:32;;;;;;;6.93;2.58;;;11.60;99.90;;;;;;5052051;28;20099;-65
2022/11/05 10:37:58;;;;;;;6.22;2.58;;;11.50;99.90;;;;;;5033098;28;20043;-65
2022/11/05 10:41:01;;;;;;;6.53;2.33;;;11.60;99.90;;;;;;5034017;28;20124;-66
2022/11/05 10:43:37;;;;;;;10.23;2.17;;;11.60;99.90;;;;;;5017758;28;20088;-66
2022/11/05 10:46:34;;;;;;;5.75;2.25;;;11.60;99.90;;;;;;5012366;28;20036;-65
2022/11/05 10:49:31;;;;;;;7.50;2.47;;;11.70;99.90;;;;;;5031141;28;20041;-65
2022/11/05 10:52:00;;;;;;;5.80;2.83;;;11.70;99.90;;;;;;5013456;28;20041;-65
2022/11/05 10:54:33;;;;;;;5.50;2.22;;;11.80;99.90;;;;;;5022799;28;20052;-66
2022/11/05 10:56:59;;;;;;;7.68;2.22;;;11.90;99.90;;;;;;5029492;28;20094;-65
2022/11/05 10:59:26;;;;;;;5.88;1.98;;;11.90;99.90;;;;;;5012775;28;20378;-65
2022/11/05 11:02:02;;;;;;;9.57;2.45;;;12.00;99.90;;;;;;5052313;28;21260;-68
2022/11/05 11:04:29;;;;;;;8.02;2.22;;;12.00;99.90;;;;;;5033890;28;20080;-65
2022/11/05 11:06:57;;;;;;;5.82;2.15;;;12.00;99.90;;;;;;5039617;28;20498;-65
2022/11/05 11:09:31;;;;;;;9.50;2.75;;;12.10;99.90;;;;;;5034975;28;20045;-64
2022/11/05 11:12:05;;;;;;;6.22;2.10;;;12.10;99.90;;;;;;5033096;28;20110;-65
2022/11/05 11:14:33;;;;;;;5.97;2.05;;;12.20;99.90;;;;;;5035045;28;20041;-65
2022/11/05 11:17:25;;;;;;;5.00;2.00;;;12.30;99.90;;;;;;5033854;28;20052;-64
2022/11/05 11:20:10;;;;;;;6.43;2.25;;;12.30;99.90;;;;;;5030599;28;20045;-64
2022/11/05 11:22:35;;;;;;;6.97;2.10;;;12.30;99.90;;;;;;5039204;28;20037;-64
2022/11/05 11:25:21;;;;;;;7.13;2.03;;;12.30;99.90;;;;;;5052112;28;20579;-64
2022/11/05 11:27:47;;;;;;;7.75;2.20;;;12.30;99.90;;;;;;5033951;28;20049;-64
2022/11/05 11:30:18;;;;;;;6.20;2.03;;;12.30;99.90;;;;;;5034451;28;20037;-65
2022/11/05 11:32:45;;;;;;;5.30;1.85;;;12.30;99.90;;;;;;5030138;28;20045;-65
2022/11/05 11:35:24;;;;;;;7.93;2.25;;;12.20;99.90;;;;;;5014749;28;20072;-65
2022/11/05 11:37:54;;;;;;;7.13;1.92;;;12.20;99.90;;;;;;5014453;28;20095;-65
2022/11/05 11:40:23;;;;;;;4.65;1.73;;;12.10;99.90;;;;;;5034139;28;20036;-65
2022/11/05 11:42:53;;;;;;;5.75;2.03;;;12.10;99.90;;;;;;5033061;28;20084;-63
2022/11/05 11:45:36;;;;;;;7.10;1.75;;;12.10;99.90;;;;;;5031988;28;20513;-65
2022/11/05 11:48:05;;;;;;;7.05;2.30;;;12.10;99.90;;;;;;5026248;28;20037;-70
2022/11/05 11:50:44;;;;;;;7.82;2.15;;;12.10;99.90;;;;;;5016142;28;20055;-66
2022/11/05 11:53:19;;;;;;;5.07;1.80;;;12.00;99.90;;;;;;5033149;28;20055;-67
2022/11/05 11:55:54;;;;;;;11.65;2.03;;;11.90;99.90;;;;;;5032515;28;20131;-65
2022/11/05 11:58:21;;;;;;;4.75;1.55;;;11.80;99.90;;;;;;5033174;28;20049;-65
2022/11/05 12:01:01;;;;;;;6.40;2.25;;;11.70;99.90;;;;;;5049888;28;20047;-65
2022/11/05 12:03:52;;;;;;;4.10;1.27;;;11.60;99.90;;;;;;5051378;28;20041;-66
2022/11/05 12:06:38;;;;;;;4.20;1.35;;;11.50;99.90;;;;;;5031631;28;20466;-66
2022/11/05 12:09:07;;;;;;;5.32;1.75;;;11.40;99.90;;;;;;5040310;28;20103;-65
2022/11/05 12:12:18;;;;;;;4.20;1.67;;;11.30;99.90;;;;;;5031132;28;20087;-66
2022/11/05 12:14:54;;;;;;;3.38;1.13;;;11.30;99.90;;;;;;5010777;28;20498;-65
2022/11/05 12:17:51;;;;;;;4.00;1.00;;;11.20;99.90;;;;;;5046390;28;20036;-66
2022/11/05 12:20:34;;;;;;;3.13;1.02;;;11.20;99.90;;;;;;5057366;28;20397;-66
2022/11/05 12:23:35;;;;;;;5.15;1.10;;;11.20;99.90;;;;;;5015432;28;20401;-66
2022/11/05 12:26:08;;;;;;;4.80;1.38;;;11.10;99.90;;;;;;4973354;28;20547;-66
2022/11/05 12:28:55;;;;;;;4.95;1.23;;;11.10;99.90;;;;;;5025022;28;20049;-66
2022/11/05 12:31:30;;;;;;;5.68;1.67;;;11.10;99.90;;;;;;5034129;28;20044;-67
2022/11/05 12:34:20;;;;;;;3.65;1.30;;;11.00;99.90;;;;;;5053042;28;20064;-66
2022/11/05 12:36:53;;;;;;;4.15;1.30;;;11.00;99.90;;;;;;5017944;28;20110;-61
2022/11/05 12:39:40;;;;;;;4.70;1.70;;;11.00;99.90;;;;;;5033438;28;20068;-62
2022/11/05 12:42:22;;;;;;;7.28;1.67;;;10.90;99.90;;;;;;4979343;28;20049;-63
2022/11/05 12:45:06;;;;;;;3.97;1.48;;;10.90;99.90;;;;;;5034290;28;20037;-63
2022/11/05 12:47:53;;;;;;;5.05;1.60;;;10.80;99.90;;;;;;5034140;28;20053;-63
2022/11/05 12:50:21;;;;;;;4.25;1.60;;;10.80;99.90;;;;;;5034778;28;20037;-63
2022/11/05 12:53:13;;;;;;;5.75;1.67;;;10.80;99.90;;;;;;5034517;28;20525;-63
2022/11/05 12:55:42;;;;;;;5.35;1.98;;;10.90;99.90;;;;;;4997707;28;20052;-63
2022/11/05 12:58:23;;;;;;;6.10;2.08;;;10.90;99.90;;;;;;5053976;28;20126;-63
2022/11/05 13:00:57;;;;;;;6.95;2.58;;;10.80;99.90;;;;;;5045666;28;20036;-63
2022/11/05 13:03:35;;;;;;;5.47;1.93;;;10.90;99.90;;;;;;5035292;28;20048;-63
2022/11/05 13:06:09;;;;;;;6.85;2.38;;;10.80;99.90;;;;;;5034248;28;20045;-63
2022/11/05 13:08:40;;;;;;;7.93;2.90;;;10.80;99.90;;;;;;5034527;28;20072;-63
2022/11/05 13:11:15;;;;;;;10.80;2.60;;;10.80;99.90;;;;;;5033591;28;20053;-63
2022/11/05 13:13:41;;;;;;;;;;;10.80;99.90;;;;;;5027151;28;20045;-63
2022/11/05 13:16:15;;;;;;;7.93;2.92;;;10.90;99.90;;;;;;5031848;28;20309;-63
2022/11/05 13:18:48;;;;;;;9.00;3.17;;;10.90;99.90;;;;;;5032128;28;20048;-62
2022/11/05 13:21:15;;;;;;;7.05;3.15;;;10.90;99.90;;;;;;5022306;28;20509;-63
2022/11/05 13:24:04;;;;;;;7.43;3.30;;;11.00;99.90;;;;;;5034430;28;20123;-63
2022/11/05 13:26:49;;;;;;;7.05;2.97;;;11.00;99.90;;;;;;5051662;28;20051;-66
2022/11/05 13:29:27;;;;;;;8.43;2.55;;;11.10;99.90;;;;;;5030843;28;20045;-64
2022/11/05 13:32:23;;;;;;;9.13;2.63;;;11.10;99.90;;;;;;5049006;28;20049;-64
2022/11/05 13:34:56;;;;;;;7.18;2.97;;;11.20;99.90;;;;;;5034073;28;20385;-64
2022/11/05 13:40:14;;;;;;;5.13;2.42;;;11.30;99.90;;;;;;5051134;28;20584;-64
2022/11/05 13:43:01;;;;;;;7.82;3.33;;;11.30;99.90;;;;;;5034181;28;20044;-64
2022/11/05 13:45:46;;;;;;;7.05;3.38;;;11.30;99.90;;;;;;5018106;28;20047;-64
2022/11/05 13:48:35;;;;;;;8.68;3.22;;;11.30;99.90;;;;;;5017099;28;20087;-64
2022/11/05 13:51:18;;;;;;;8.80;3.53;;;11.40;99.90;;;;;;5052074;28;20037;-64
2022/11/05 13:54:01;;;;;;;8.43;3.38;;;11.40;99.90;;;;;;5033637;28;20033;-64
2022/11/05 13:56:45;;;;;;;8.15;3.80;;;11.40;99.90;;;;;;5052030;28;20120;-64